createdAt,value
2023-03-22T00:01:14.286Z,3.47
2023-03-22T00:03:41.699Z,4.03
2023-03-22T00:06:09.468Z,4.07
2023-03-22T00:08:36.706Z,3.28
2023-03-22T00:11:04.305Z,3.88
2023-03-22T00:13:32.246Z,3.40
2023-03-22T00:16:00.017Z,3.75
2023-03-22T00:18:26.966Z,4.22
2023-03-22T00:20:56.029Z,4.05
2023-03-22T00:23:24.391Z,4.53
2023-03-22T00:25:51.916Z,5.10
2023-03-22T00:28:19.333Z,4.72
2023-03-22T00:30:58.151Z,4.15
2023-03-22T00:33:28.739Z,4.43
2023-03-22T00:36:00.261Z,5.13
2023-03-22T00:38:42.355Z,4.40
2023-03-22T00:41:15.968Z,4.68
2023-03-22T00:43:45.682Z,4.40
2023-03-22T00:46:14.150Z,5.22
2023-03-22T00:48:41.635Z,6.43
2023-03-22T00:51:09.689Z,5.13
2023-03-22T00:53:42.383Z,5.60
2023-03-22T00:56:14.327Z,5.90
2023-03-22T00:59:05.506Z,5.07
2023-03-22T01:01:32.549Z,6.10
2023-03-22T01:03:59.925Z,6.10
2023-03-22T01:06:26.977Z,6.25
2023-03-22T01:08:55.241Z,6.10
2023-03-22T01:11:22.287Z,5.57
2023-03-22T01:13:49.729Z,5.93
2023-03-22T01:16:17.428Z,6.38
2023-03-22T01:18:44.779Z,6.07
2023-03-22T01:21:11.771Z,6.30
2023-03-22T01:23:38.903Z,6.20
2023-03-22T01:26:06.177Z,5.72
2023-03-22T01:28:33.219Z,6.13
2023-03-22T01:31:03.707Z,6.05
2023-03-22T01:33:31.339Z,6.05
2023-03-22T01:35:58.941Z,5.90
2023-03-22T01:38:26.673Z,5.72
2023-03-22T01:40:57.425Z,5.50
2023-03-22T01:43:25.339Z,5.97
2023-03-22T01:45:54.061Z,5.43
2023-03-22T01:48:28.285Z,6.28
2023-03-22T01:51:03.689Z,5.97
2023-03-22T01:53:45.601Z,5.20
2023-03-22T01:56:13.536Z,5.35
2023-03-22T01:58:42.209Z,4.95
2023-03-22T02:01:11.605Z,5.05
2023-03-22T02:03:53.356Z,5.13
2023-03-22T02:06:21.623Z,5.30
2023-03-22T02:08:57.988Z,4.78
2023-03-22T02:11:31.025Z,5.78
2023-03-22T02:14:12.657Z,5.43
2023-03-22T02:17:14.894Z,4.93
2023-03-22T02:20:11.111Z,4.95
2023-03-22T02:23:15.923Z,5.68
2023-03-22T02:26:08.235Z,6.32
2023-03-22T02:28:35.166Z,5.10
2023-03-22T02:31:37.890Z,4.47
2023-03-22T02:34:34.557Z,4.78
2023-03-22T02:37:10.565Z,5.30
2023-03-22T02:39:58.570Z,4.65
2023-03-22T02:42:44.320Z,4.57
2023-03-22T02:48:16.998Z,4.65
2023-03-22T02:51:03.862Z,4.28
2023-03-22T02:53:46.341Z,4.43
2023-03-22T02:56:14.603Z,4.35
2023-03-22T02:58:45.866Z,4.47
2023-03-22T03:01:42.941Z,4.60
2023-03-22T03:04:16.217Z,4.95
2023-03-22T03:06:48.826Z,4.50
2023-03-22T03:09:18.663Z,4.50
2023-03-22T03:11:52.607Z,4.40
2023-03-22T03:14:26.710Z,4.38
2023-03-22T03:17:32.359Z,4.97
2023-03-22T03:20:02.274Z,4.35
2023-03-22T03:22:35.358Z,4.85
2023-03-22T03:25:20.397Z,5.13
2023-03-22T03:28:00.924Z,4.10
2023-03-22T03:30:56.246Z,3.95
2023-03-22T03:33:27.966Z,3.95
2023-03-22T03:36:01.032Z,3.38
2023-03-22T03:38:31.740Z,3.53
2023-03-22T03:41:21.165Z,3.80
2023-03-22T03:43:51.409Z,3.10
2023-03-22T03:46:18.486Z,3.25
2023-03-22T03:48:48.306Z,3.70
2023-03-22T03:51:15.799Z,3.13
2023-03-22T03:53:43.028Z,3.28
2023-03-22T03:56:10.884Z,3.05
2023-03-22T03:58:42.794Z,3.30
2023-03-22T04:01:10.308Z,3.08
2023-03-22T04:03:55.453Z,2.97
2023-03-22T04:06:44.367Z,2.55
2023-03-22T04:09:17.117Z,3.00
2023-03-22T04:11:47.856Z,3.25
2023-03-22T04:14:15.832Z,3.17
2023-03-22T04:16:43.175Z,2.92
2023-03-22T04:19:14.380Z,2.95
2023-03-22T04:21:41.361Z,2.90
2023-03-22T04:24:09.493Z,3.05
2023-03-22T04:26:40.411Z,3.33
2023-03-22T04:29:16.926Z,2.47
2023-03-22T04:31:48.606Z,2.60
2023-03-22T04:34:22.656Z,3.20
2023-03-22T04:36:54.349Z,2.88
2023-03-22T04:39:30.640Z,3.03
2023-03-22T04:42:17.792Z,2.80
2023-03-22T04:44:46.276Z,3.67
2023-03-22T04:47:13.116Z,3.05
2023-03-22T04:49:40.313Z,2.72
2023-03-22T04:52:07.256Z,2.85
2023-03-22T04:54:38.287Z,2.63
2023-03-22T04:57:06.376Z,2.65
2023-03-22T04:59:38.947Z,2.47
2023-03-22T05:02:06.068Z,3.13
2023-03-22T05:04:40.233Z,2.75
2023-03-22T05:07:15.584Z,2.67
2023-03-22T05:09:53.485Z,2.92
2023-03-22T05:12:20.533Z,2.58
2023-03-22T05:14:53.497Z,3.17
2023-03-22T05:17:24.692Z,2.97
2023-03-22T05:19:55.923Z,2.80
2023-03-22T05:22:22.942Z,3.08
2023-03-22T05:24:51.742Z,3.00
2023-03-22T05:27:31.286Z,2.63
2023-03-22T05:30:24.459Z,2.95
2023-03-22T05:33:03.841Z,3.70
2023-03-22T05:35:37.280Z,3.33
2023-03-22T05:38:05.964Z,3.03
2023-03-22T05:40:36.220Z,3.20
2023-03-22T05:43:03.198Z,3.30
2023-03-22T05:45:32.512Z,2.90
2023-03-22T05:48:10.329Z,2.85
2023-03-22T05:50:37.782Z,2.85
2023-03-22T05:53:05.394Z,3.50
2023-03-22T05:55:41.556Z,2.40
2023-03-22T05:58:09.150Z,3.58
2023-03-22T06:00:39.408Z,3.00
2023-03-22T06:03:21.708Z,3.03
2023-03-22T06:05:59.659Z,2.42
2023-03-22T06:08:38.615Z,2.75
2023-03-22T06:11:07.446Z,3.63
2023-03-22T06:13:35.368Z,3.20
2023-03-22T06:16:04.062Z,3.42
2023-03-22T06:18:31.582Z,3.55
2023-03-22T06:21:06.058Z,3.10
2023-03-22T06:23:33.036Z,3.78
2023-03-22T06:25:59.911Z,3.95
2023-03-22T06:28:29.898Z,2.85
2023-03-22T06:30:58.187Z,3.67
2023-03-22T06:33:29.855Z,3.80
2023-03-22T06:36:03.528Z,3.30
2023-03-22T06:38:41.209Z,3.15
2023-03-22T06:41:08.342Z,3.00
2023-03-22T06:43:35.520Z,3.00
2023-03-22T06:46:14.656Z,3.03
2023-03-22T06:48:48.035Z,2.90
2023-03-22T06:51:16.631Z,3.25
2023-03-22T06:53:45.361Z,3.20
2023-03-22T06:56:12.517Z,2.90
2023-03-22T06:58:47.135Z,2.83
2023-03-22T07:01:14.199Z,2.78
2023-03-22T07:03:41.088Z,2.88
2023-03-22T07:06:13.474Z,3.65
2023-03-22T07:08:43.388Z,3.28
2023-03-22T07:11:13.379Z,3.13
2023-03-22T07:13:42.595Z,2.70
2023-03-22T07:16:14.708Z,2.67
2023-03-22T07:18:50.385Z,2.90
2023-03-22T07:21:17.374Z,2.55
2023-03-22T07:23:49.212Z,2.92
2023-03-22T07:26:18.598Z,3.58
2023-03-22T07:28:48.640Z,3.25
2023-03-22T07:31:16.236Z,2.67
2023-03-22T07:34:07.236Z,2.75
2023-03-22T07:36:46.154Z,2.80
2023-03-22T07:39:13.646Z,3.85
2023-03-22T07:41:44.576Z,3.00
2023-03-22T07:44:23.857Z,3.80
2023-03-22T07:47:39.463Z,2.90
2023-03-22T07:50:38.431Z,3.15
2023-03-22T07:53:06.389Z,3.20
2023-03-22T07:55:33.224Z,2.58
2023-03-22T07:58:00.176Z,3.40
2023-03-22T08:00:27.268Z,3.50
2023-03-22T08:03:17.107Z,3.00
2023-03-22T08:06:03.209Z,3.28
2023-03-22T08:08:30.346Z,3.33
2023-03-22T08:10:57.797Z,3.10
2023-03-22T08:13:24.973Z,3.15
2023-03-22T08:15:52.189Z,3.13
2023-03-22T08:18:21.119Z,4.00
2023-03-22T08:20:54.278Z,3.13
2023-03-22T08:23:28.833Z,3.83
2023-03-22T08:26:20.582Z,4.03
2023-03-22T08:28:48.646Z,3.17
2023-03-22T08:31:17.350Z,2.90
2023-03-22T08:33:47.247Z,3.05
2023-03-22T08:36:17.679Z,3.58
2023-03-22T08:38:55.521Z,3.20
2023-03-22T08:41:32.614Z,2.97
2023-03-22T08:44:01.716Z,2.75
2023-03-22T08:46:28.807Z,3.22
2023-03-22T08:48:58.834Z,2.95
2023-03-22T08:51:31.879Z,3.47
2023-03-22T08:54:08.923Z,2.90
2023-03-22T08:56:59.262Z,2.65
2023-03-22T08:59:42.953Z,3.00
2023-03-22T09:02:30.314Z,2.67
2023-03-22T09:04:58.728Z,3.08
2023-03-22T09:07:27.345Z,3.00
2023-03-22T09:10:04.114Z,2.80
2023-03-22T09:12:32.157Z,2.78
2023-03-22T09:14:59.373Z,2.78
2023-03-22T09:17:29.095Z,2.78
2023-03-22T09:20:11.123Z,3.05
2023-03-22T09:22:41.318Z,2.67
2023-03-22T09:25:12.515Z,2.90
2023-03-22T09:27:42.093Z,2.50
2023-03-22T09:30:09.560Z,2.75
2023-03-22T09:32:36.597Z,4.00
2023-03-22T09:35:05.245Z,2.72
2023-03-22T09:37:39.905Z,2.78
2023-03-22T09:40:08.193Z,2.40
2023-03-22T09:42:42.552Z,2.33
2023-03-22T09:45:18.607Z,3.40
2023-03-22T09:47:52.572Z,2.45
2023-03-22T09:50:26.137Z,2.67
2023-03-22T09:52:53.825Z,3.13
2023-03-22T09:55:41.293Z,3.13
2023-03-22T09:58:21.309Z,2.80
2023-03-22T10:00:55.839Z,2.75
2023-03-22T10:03:25.499Z,2.63
2023-03-22T10:05:55.591Z,3.25
2023-03-22T10:08:28.475Z,2.72
2023-03-22T10:10:56.746Z,2.60
2023-03-22T10:13:45.720Z,2.35
2023-03-22T10:16:24.301Z,2.30
2023-03-22T10:18:54.519Z,2.72
2023-03-22T10:21:21.871Z,2.90
2023-03-22T10:23:57.933Z,2.70
2023-03-22T10:26:33.697Z,2.45
2023-03-22T10:29:12.559Z,2.60
2023-03-22T10:31:44.731Z,2.60
2023-03-22T10:34:21.148Z,2.38
2023-03-22T10:36:51.625Z,2.70
2023-03-22T10:39:24.595Z,2.90
2023-03-22T10:41:56.393Z,2.90
2023-03-22T10:44:28.802Z,2.50
2023-03-22T10:46:58.060Z,2.60
2023-03-22T10:49:37.985Z,3.58
2023-03-22T10:52:22.712Z,2.50
2023-03-22T10:54:49.657Z,2.42
2023-03-22T10:57:17.421Z,2.45
2023-03-22T10:59:49.902Z,2.30
2023-03-22T11:02:46.123Z,2.47
2023-03-22T11:07:46.479Z,2.85
2023-03-22T11:10:29.759Z,2.90
2023-03-22T11:13:19.370Z,2.40
2023-03-22T11:15:58.261Z,2.30
2023-03-22T11:18:29.440Z,2.05
2023-03-22T11:20:59.600Z,2.83
2023-03-22T11:23:29.254Z,2.50
2023-03-22T11:25:59.224Z,2.25
2023-03-22T11:28:36.690Z,2.15
2023-03-22T11:31:08.467Z,2.22
2023-03-22T11:33:36.811Z,2.58
2023-03-22T11:36:17.680Z,2.50
2023-03-22T11:38:45.673Z,2.38
2023-03-22T11:41:25.881Z,2.13
2023-03-22T11:43:56.145Z,2.13
2023-03-22T11:46:23.647Z,2.40
2023-03-22T11:48:53.300Z,2.28
2023-03-22T11:51:29.756Z,2.35
2023-03-22T11:54:09.058Z,2.42
2023-03-22T11:56:41.659Z,2.83
2023-03-22T11:59:16.931Z,2.20
2023-03-22T12:01:51.273Z,3.03
2023-03-22T12:04:24.413Z,2.30
2023-03-22T12:06:55.395Z,2.80
2023-03-22T12:09:43.550Z,2.25
2023-03-22T12:12:26.007Z,2.10
2023-03-22T12:15:05.450Z,2.50
2023-03-22T12:17:48.815Z,2.10
2023-03-22T12:20:19.712Z,2.30
2023-03-22T12:22:52.737Z,2.40
2023-03-22T12:25:24.899Z,2.92
2023-03-22T12:28:03.561Z,2.85
2023-03-22T12:30:37.199Z,2.72
2023-03-22T12:33:09.730Z,2.35
2023-03-22T12:35:42.572Z,2.58
2023-03-22T12:38:39.400Z,2.50
2023-03-22T12:41:12.184Z,2.60
2023-03-22T12:43:44.965Z,2.40
2023-03-22T12:46:20.457Z,3.28
2023-03-22T12:51:15.914Z,2.60
2023-03-22T12:53:55.111Z,2.17
2023-03-22T12:56:26.475Z,2.80
2023-03-22T12:58:58.598Z,3.13
2023-03-22T13:01:58.190Z,2.83
2023-03-22T13:04:37.745Z,2.35
2023-03-22T13:07:34.252Z,2.47
2023-03-22T13:10:21.874Z,2.78
2023-03-22T13:13:12.745Z,3.08
2023-03-22T13:15:55.981Z,2.88
2023-03-22T13:18:30.124Z,3.25
2023-03-22T13:21:16.521Z,3.55
2023-03-22T13:23:55.732Z,3.80
2023-03-22T13:26:30.699Z,3.03
2023-03-22T13:28:59.910Z,2.70
2023-03-22T13:31:52.904Z,2.83
2023-03-22T13:34:37.599Z,3.10
2023-03-22T13:37:22.889Z,3.58
2023-03-22T13:39:51.998Z,3.13
2023-03-22T13:42:22.539Z,3.25
2023-03-22T13:44:59.161Z,3.50
2023-03-22T13:47:33.375Z,3.80
2023-03-22T13:50:27.617Z,3.38
2023-03-22T13:53:07.645Z,3.70
2023-03-22T13:55:46.779Z,4.03
2023-03-22T13:58:38.662Z,3.40
2023-03-22T14:01:14.494Z,3.65
2023-03-22T14:03:44.402Z,3.83
2023-03-22T14:06:19.485Z,3.63
2023-03-22T14:08:49.713Z,3.40
2023-03-22T14:11:32.744Z,3.40
2023-03-22T14:14:06.699Z,3.35
2023-03-22T14:17:01.032Z,3.60
2023-03-22T14:19:34.313Z,3.90
